Time;durP1;ratioP1;P1;durP2;ratioP2;P2;SDS_P1;SDS_P2;PMS_P1;PMS_P2;Temp;Humidity;BMP_temperature;BMP_pressure;BME280_temperature;BME280_humidity;BME280_pressure;Samples;Min_cycle;Max_cycle;Signal;HPM_P1;HPM_P2
2022/06/09 00:01:48;;;;;;;;;;;15.70;99.90;;;;;;5112413;28;19967;-67
2022/06/09 00:04:16;;;;;;;;;;;15.60;99.90;;;;;;5112230;28;20353;-67
2022/06/09 00:06:44;;;;;;;;;;;15.60;99.90;;;;;;5112335;28;20423;-67
2022/06/09 00:09:09;;;;;;;;;;;15.60;99.90;;;;;;5112149;28;19927;-67
2022/06/09 00:11:36;;;;;;;;;;;15.60;99.90;;;;;;5112347;28;20384;-67
2022/06/09 00:14:03;;;;;;;;;;;15.60;99.90;;;;;;5112249;28;19979;-67
2022/06/09 00:16:28;;;;;;;;;;;15.50;99.90;;;;;;5112191;28;20295;-67
2022/06/09 00:18:55;;;;;;;;;;;15.50;99.90;;;;;;5111639;28;19920;-67
2022/06/09 00:21:22;;;;;;;;;;;15.50;99.90;;;;;;5112167;28;19926;-67
2022/06/09 00:23:48;;;;;;;;;;;15.40;99.90;;;;;;5112116;28;19931;-67
2022/06/09 00:26:14;;;;;;;;;;;15.40;99.90;;;;;;5112184;28;19928;-67
2022/06/09 00:28:39;;;;;;;;;;;15.40;99.90;;;;;;5111980;28;19920;-67
2022/06/09 00:31:05;;;;;;;;;;;15.40;99.90;;;;;;5112078;28;19919;-67
2022/06/09 00:33:30;;;;;;;;;;;15.30;99.90;;;;;;5110820;28;20383;-67
2022/06/09 00:35:56;;;;;;;;;;;15.30;99.90;;;;;;5111863;28;19926;-67
2022/06/09 00:38:21;;;;;;;;;;;15.30;99.90;;;;;;5110492;28;19927;-67
2022/06/09 00:40:47;;;;;;;;;;;15.30;99.90;;;;;;5111963;28;19920;-67
2022/06/09 00:43:12;;;;;;;;;;;15.30;99.90;;;;;;5111774;28;20340;-67
2022/06/09 00:45:45;;;;;;;;;;;15.20;99.90;;;;;;5111914;28;19931;-68
2022/06/09 00:48:16;;;;;;;;;;;15.20;99.90;;;;;;5111781;28;19919;-68
2022/06/09 00:50:42;;;;;;;;;;;15.20;99.90;;;;;;5110296;28;19968;-67
2022/06/09 00:53:12;;;;;;;;;;;15.10;99.90;;;;;;5111814;28;19920;-68
2022/06/09 00:55:38;;;;;;;;;;;15.00;99.90;;;;;;5111849;28;19919;-67
2022/06/09 00:58:08;;;;;;;;;;;15.00;99.90;;;;;;5111685;28;20417;-68
2022/06/09 01:00:42;;;;;;;;;;;15.00;99.90;;;;;;5111684;28;20584;-67
2022/06/09 01:03:08;;;;;;;;;;;15.00;99.90;;;;;;5111483;28;20372;-67
2022/06/09 01:05:36;;;;;;;;;;;14.90;99.90;;;;;;5111756;28;19924;-68
2022/06/09 01:08:03;;;;;;;;;;;14.90;99.90;;;;;;5111780;28;19944;-68
2022/06/09 01:10:29;;;;;;;;;;;14.80;99.90;;;;;;5111480;28;19930;-68
2022/06/09 01:12:56;;;;;;;;;;;14.80;99.90;;;;;;5111444;28;20423;-67
2022/06/09 01:15:23;;;;;;;;;;;14.80;99.90;;;;;;5110267;28;19920;-67
2022/06/09 01:17:51;;;;;;;;;;;14.80;99.90;;;;;;5111613;28;19924;-67
2022/06/09 01:20:26;;;;;;;;;;;14.80;99.90;;;;;;5111447;28;20325;-67
2022/06/09 01:23:03;;;;;;;;;;;14.80;99.90;;;;;;5111497;28;19924;-68
2022/06/09 01:25:29;;;;;;;;;;;14.70;99.90;;;;;;5111438;28;19930;-67
2022/06/09 01:28:13;;;;;;;;;;;14.80;99.90;;;;;;5111310;28;19923;-67
2022/06/09 01:30:51;;;;;;;;;;;14.80;99.90;;;;;;5111170;28;20029;-67
2022/06/09 01:33:25;;;;;;;;;;;14.70;99.90;;;;;;5111506;28;19927;-67
2022/06/09 01:36:00;;;;;;;;;;;14.80;99.90;;;;;;5111496;28;19927;-68
2022/06/09 01:38:25;;;;;;;;;;;14.70;99.90;;;;;;5111430;28;19924;-68
2022/06/09 01:40:51;;;;;;;;;;;14.70;99.90;;;;;;5111515;28;19926;-68
2022/06/09 01:43:16;;;;;;;;;;;14.60;99.90;;;;;;5111283;28;19924;-67
2022/06/09 01:45:48;;;;;;;;;;;14.60;99.90;;;;;;5114221;28;20302;-67
2022/06/09 01:48:15;;;;;;;;;;;14.50;99.90;;;;;;5115067;28;20292;-67
2022/06/09 01:50:44;;;;;;;;;;;14.60;99.90;;;;;;5114648;28;19927;-67
2022/06/09 01:53:15;;;;;;;;;;;14.50;99.90;;;;;;5115131;28;20292;-68
2022/06/09 01:55:43;;;;;;;;;;;14.50;99.90;;;;;;5115008;28;19919;-67
2022/06/09 01:58:10;;;;;;;;;;;14.50;99.90;;;;;;5114630;28;20397;-67
2022/06/09 02:00:36;;;;;;;;;;;14.50;99.90;;;;;;5114687;28;19979;-67
2022/06/09 02:03:04;;;;;;;;;;;14.50;99.90;;;;;;5114586;27;19924;-67
2022/06/09 02:05:32;;;;;;;;;;;14.50;99.90;;;;;;5114648;28;20478;-67
2022/06/09 02:08:00;;;;;;;;;;;14.40;99.90;;;;;;5114645;28;20007;-68
2022/06/09 02:10:33;;;;;;;;;;;14.40;99.90;;;;;;5114425;28;19926;-67
2022/06/09 02:13:00;;;;;;;;;;;14.50;99.90;;;;;;5114804;28;19924;-68
2022/06/09 02:15:30;;;;;;;;;;;14.50;99.90;;;;;;5114581;28;20388;-67
2022/06/09 02:17:55;;;;;;;;;;;14.50;99.90;;;;;;5114448;28;19920;-67
2022/06/09 02:20:22;;;;;;;;;;;14.40;99.90;;;;;;5114339;28;20004;-67
2022/06/09 02:22:48;;;;;;;;;;;14.40;99.90;;;;;;5114422;28;19930;-67
2022/06/09 02:25:13;;;;;;;;;;;14.40;99.90;;;;;;5114593;28;19928;-67
2022/06/09 02:27:39;;;;;;;;;;;14.30;99.90;;;;;;5112957;28;19923;-67
2022/06/09 02:30:05;;;;;;;;;;;14.30;99.90;;;;;;5113939;28;19973;-67
2022/06/09 02:32:32;;;;;;;;;;;14.30;99.90;;;;;;5114097;28;20010;-67
2022/06/09 02:34:58;;;;;;;;;;;14.30;99.90;;;;;;5114249;28;20322;-67
2022/06/09 02:37:24;;;;;;;;;;;14.30;99.90;;;;;;5114228;27;20082;-67
2022/06/09 02:39:49;;;;;;;;;;;14.30;99.90;;;;;;5113802;28;19920;-67
2022/06/09 02:42:15;;;;;;;;;;;14.20;99.90;;;;;;5113960;28;19927;-67
2022/06/09 02:44:40;;;;;;;;;;;14.20;99.90;;;;;;5113787;28;19930;-67
2022/06/09 02:47:06;;;;;;;;;;;14.20;99.90;;;;;;5113865;28;19923;-67
2022/06/09 02:49:31;;;;;;;;;;;14.30;99.90;;;;;;5113824;28;19920;-67
2022/06/09 02:51:56;;;;;;;;;;;14.30;99.90;;;;;;5113898;28;20296;-67
2022/06/09 02:54:22;;;;;;;;;;;14.20;99.90;;;;;;5113831;28;20008;-67
2022/06/09 02:56:47;;;;;;;;;;;14.30;99.90;;;;;;5112763;28;19927;-67
2022/06/09 02:59:13;;;;;;;;;;;14.20;99.90;;;;;;5113282;28;19934;-67
2022/06/09 03:01:39;;;;;;;;;;;14.20;99.90;;;;;;5113396;28;19930;-67
2022/06/09 03:04:05;;;;;;;;;;;14.20;99.90;;;;;;5113698;28;19925;-67
2022/06/09 03:06:30;;;;;;;;;;;14.20;99.90;;;;;;5113690;27;19926;-67
2022/06/09 03:08:56;;;;;;;;;;;14.30;99.90;;;;;;5113122;27;19978;-67
2022/06/09 03:11:21;;;;;;;;;;;14.20;99.90;;;;;;5112075;28;19924;-68
2022/06/09 03:13:47;;;;;;;;;;;14.20;99.90;;;;;;5110100;28;20372;-68
2022/06/09 03:16:13;;;;;;;;;;;14.10;99.90;;;;;;5110277;28;19920;-67
2022/06/09 03:18:39;;;;;;;;;;;14.20;99.90;;;;;;5112132;28;20026;-67
2022/06/09 03:21:04;;;;;;;;;;;14.20;99.90;;;;;;5112663;28;20023;-67
2022/06/09 03:23:31;;;;;;;;;;;14.10;99.90;;;;;;5112035;28;20031;-67
2022/06/09 03:25:57;;;;;;;;;;;14.10;99.90;;;;;;5112516;28;20446;-67
2022/06/09 03:28:22;;;;;;;;;;;14.00;99.90;;;;;;5111811;28;19974;-67
2022/06/09 03:30:47;;;;;;;;;;;14.10;99.90;;;;;;5112798;28;19920;-67
2022/06/09 03:33:13;;;;;;;;;;;14.10;99.90;;;;;;5112879;28;20462;-67
2022/06/09 03:35:38;;;;;;;;;;;14.00;99.90;;;;;;5113066;28;19923;-67
2022/06/09 03:38:04;;;;;;;;;;;14.00;99.90;;;;;;5112854;28;20398;-68
2022/06/09 03:40:30;;;;;;;;;;;14.00;99.90;;;;;;5112646;28;19986;-67
2022/06/09 03:42:56;;;;;;;;;;;14.00;99.90;;;;;;5112730;28;20012;-67
2022/06/09 03:45:22;;;;;;;;;;;14.10;99.90;;;;;;5112745;27;19923;-67
2022/06/09 03:47:48;;;;;;;;;;;14.10;99.90;;;;;;5112855;28;19945;-68
2022/06/09 03:50:18;;;;;;;;;;;14.10;99.90;;;;;;5112635;27;19927;-67
2022/06/09 03:52:43;;;;;;;;;;;14.10;99.90;;;;;;5112642;28;19930;-68
2022/06/09 03:55:09;;;;;;;;;;;14.10;99.90;;;;;;5112543;28;19920;-67
2022/06/09 03:57:34;;;;;;;;;;;14.10;99.90;;;;;;5112483;28;19947;-67
2022/06/09 04:00:00;;;;;;;;;;;14.10;99.90;;;;;;5112104;28;19946;-67
2022/06/09 04:02:25;;;;;;;;;;;14.10;99.90;;;;;;5112439;28;19920;-67
2022/06/09 04:04:52;;;;;;;;;;;14.10;99.90;;;;;;5112564;28;20449;-67
2022/06/09 04:07:18;;;;;;;;;;;14.20;99.90;;;;;;5112168;28;19920;-67
2022/06/09 04:09:43;;;;;;;;;;;14.20;99.90;;;;;;5112097;28;19924;-67
2022/06/09 04:12:09;;;;;;;;;;;14.20;99.90;;;;;;5112220;28;19980;-68
2022/06/09 04:14:34;;;;;;;;;;;14.20;99.90;;;;;;5112248;28;19931;-68
2022/06/09 04:17:00;;;;;;;;;;;14.20;99.90;;;;;;5112498;28;19919;-67
2022/06/09 04:19:25;;;;;;;;;;;14.40;99.90;;;;;;5111903;28;19927;-67
2022/06/09 04:21:51;;;;;;;;;;;14.40;99.90;;;;;;5112017;28;19920;-67
2022/06/09 04:24:16;;;;;;;;;;;14.40;99.90;;;;;;5112062;28;19923;-67
2022/06/09 04:26:42;;;;;;;;;;;14.50;99.90;;;;;;5112058;28;20384;-68
2022/06/09 04:29:11;;;;;;;;;;;14.50;99.90;;;;;;5110442;28;19919;-67
2022/06/09 04:31:36;;;;;;;;;;;14.50;99.90;;;;;;5112206;28;19920;-67
2022/06/09 04:34:01;;;;;;;;;;;14.50;99.90;;;;;;5112160;28;20355;-67
2022/06/09 04:36:27;;;;;;;;;;;14.50;99.90;;;;;;5112001;28;19927;-67
2022/06/09 04:38:52;;;;;;;;;;;14.50;99.90;;;;;;5111565;28;20292;-68
2022/06/09 04:41:18;;;;;;;;;;;14.60;99.90;;;;;;5111888;28;19924;-67
2022/06/09 04:43:44;;;;;;;;;;;14.60;99.90;;;;;;5111617;28;19928;-67
2022/06/09 04:46:12;;;;;;;;;;;14.50;99.90;;;;;;5111822;28;20010;-67
2022/06/09 04:48:38;;;;;;;;;;;14.50;99.90;;;;;;5110316;28;19920;-67
2022/06/09 04:51:07;;;;;;;;;;;14.50;99.90;;;;;;5111926;28;19931;-68
2022/06/09 04:53:33;;;;;;;;;;;14.50;99.90;;;;;;5110311;28;19920;-67
2022/06/09 04:55:58;;;;;;;;;;;14.60;99.90;;;;;;5110444;28;20281;-68
2022/06/09 04:58:24;;;;;;;;;;;14.50;99.90;;;;;;5111450;28;20430;-67
2022/06/09 05:00:49;;;;;;;;;;;14.60;99.90;;;;;;5111912;28;19919;-67
2022/06/09 05:03:15;;;;;;;;;;;14.60;99.90;;;;;;5111609;28;19931;-68
2022/06/09 05:05:43;;;;;;;;;;;14.60;99.90;;;;;;5110652;28;19920;-67
2022/06/09 05:08:11;;;;;;;;;;;14.60;99.90;;;;;;5111477;28;19953;-68
2022/06/09 05:10:36;;;;;;;;;;;14.60;99.90;;;;;;5111308;28;19953;-67
2022/06/09 05:13:05;;;;;;;;;;;14.70;99.90;;;;;;5110134;28;20110;-68
2022/06/09 05:15:32;;;;;;;;;;;14.70;99.90;;;;;;5111803;28;20546;-68
2022/06/09 05:17:58;;;;;;;;;;;14.70;99.90;;;;;;5110788;28;19965;-67
2022/06/09 05:20:24;;;;;;;;;;;14.70;99.90;;;;;;5113791;28;20661;-67
2022/06/09 05:22:49;;;;;;;;;;;14.70;99.90;;;;;;5114030;28;19935;-68
2022/06/09 05:25:15;;;;;;;;;;;14.80;99.90;;;;;;5115401;28;19924;-67
2022/06/09 05:27:41;;;;;;;;;;;14.80;99.90;;;;;;5115613;28;20344;-67
2022/06/09 05:30:08;;;;;;;;;;;14.80;99.90;;;;;;5115307;28;19927;-68
2022/06/09 05:32:34;;;;;;;;;;;14.80;99.90;;;;;;5115267;28;19924;-68
2022/06/09 05:34:59;;;;;;;;;;;14.80;99.90;;;;;;5115339;28;19942;-67
2022/06/09 05:37:25;;;;;;;;;;;14.80;99.90;;;;;;5115232;28;19982;-68
2022/06/09 05:45:20;;;;;;;;;;;14.90;99.90;;;;;;5115098;28;20363;-68
2022/06/09 05:47:46;;;;;;;;;;;15.00;99.90;;;;;;5115152;28;19919;-68
2022/06/09 05:50:11;;;;;;;;;;;15.00;99.90;;;;;;5114699;28;19924;-67
2022/06/09 05:52:36;;;;;;;;;;;15.00;99.90;;;;;;5114992;28;19972;-68
2022/06/09 05:55:03;;;;;;;;;;;15.00;99.90;;;;;;5115143;28;19923;-68
2022/06/09 05:57:29;;;;;;;;;;;15.10;99.90;;;;;;5114778;28;19924;-68
2022/06/09 05:59:55;;;;;;;;;;;15.10;99.90;;;;;;5114513;28;19927;-68
2022/06/09 06:02:22;;;;;;;;;;;15.10;99.90;;;;;;5114773;28;19970;-68
2022/06/09 06:04:48;;;;;;;;;;;15.10;99.90;;;;;;5114473;27;19976;-68
2022/06/09 06:07:13;;;;;;;;;;;15.20;99.90;;;;;;5114905;28;20458;-67
2022/06/09 06:09:39;;;;;;;;;;;15.20;99.90;;;;;;5114307;28;19924;-68
2022/06/09 06:12:05;;;;;;;;;;;15.20;99.90;;;;;;5114741;28;19927;-68
2022/06/09 06:14:30;;;;;;;;;;;15.20;99.90;;;;;;5114713;28;19919;-68
2022/06/09 06:16:56;;;;;;;;;;;15.20;99.90;;;;;;5114517;28;19919;-68
2022/06/09 06:19:23;;;;;;;;;;;15.20;99.90;;;;;;5114047;28;20315;-68
2022/06/09 06:21:50;;;;;;;;;;;15.20;99.90;;;;;;5112973;28;19996;-67
2022/06/09 06:24:16;;;;;;;;;;;15.20;99.90;;;;;;5114187;28;19967;-68
2022/06/09 06:26:42;;;;;;;;;;;15.30;99.90;;;;;;5114378;28;19923;-68
2022/06/09 06:29:12;;;;;;;;;;;15.40;99.90;;;;;;5113995;28;20289;-68
2022/06/09 06:31:37;;;;;;;;;;;15.40;99.90;;;;;;5112734;28;19920;-68
2022/06/09 06:34:03;;;;;;;;;;;15.50;99.90;;;;;;5114003;28;20297;-68
2022/06/09 06:36:29;;;;;;;;;;;15.50;99.90;;;;;;5114104;28;19927;-68
2022/06/09 06:38:55;;;;;;;;;;;15.50;99.90;;;;;;5113924;28;19942;-68
2022/06/09 06:41:21;;;;;;;;;;;15.50;99.90;;;;;;5114110;28;19919;-68
2022/06/09 06:43:47;;;;;;;;;;;15.60;99.90;;;;;;5113838;28;20384;-68
2022/06/09 06:46:13;;;;;;;;;;;15.60;99.90;;;;;;5113973;28;19924;-67
2022/06/09 06:48:38;;;;;;;;;;;15.60;99.90;;;;;;5113556;28;19939;-67
2022/06/09 06:51:05;;;;;;;;;;;15.60;99.90;;;;;;5114023;28;19927;-67
2022/06/09 06:53:31;;;;;;;;;;;15.60;99.90;;;;;;5113895;28;19920;-67
2022/06/09 06:55:56;;;;;;;;;;;15.60;99.90;;;;;;5113853;28;20284;-67
2022/06/09 06:58:22;;;;;;;;;;;15.60;99.90;;;;;;5113524;28;19969;-67
2022/06/09 07:00:47;;;;;;;;;;;15.70;99.90;;;;;;5113511;28;20385;-67
2022/06/09 07:03:13;;;;;;;;;;;15.70;99.90;;;;;;5113328;28;19934;-68
2022/06/09 07:05:39;;;;;;;;;;;15.70;99.90;;;;;;5113565;28;19924;-67
2022/06/09 07:08:05;;;;;;;;;;;15.70;99.90;;;;;;5113686;28;20255;-67
2022/06/09 07:10:31;;;;;;;;;;;15.80;99.90;;;;;;5113105;28;19927;-68
2022/06/09 07:12:57;;;;;;;;;;;16.00;99.90;;;;;;5113319;28;19920;-67
2022/06/09 07:15:23;;;;;;;;;;;16.00;99.90;;;;;;5113438;28;19920;-68
2022/06/09 07:17:49;;;;;;;;;;;16.10;99.90;;;;;;5113216;28;19969;-68
2022/06/09 07:20:15;;;;;;;;;;;16.20;99.90;;;;;;5113136;28;19928;-67
2022/06/09 07:22:40;;;;;;;;;;;16.30;99.90;;;;;;5113306;28;20373;-68
2022/06/09 07:25:06;;;;;;;;;;;16.40;99.90;;;;;;5113308;28;19923;-68
2022/06/09 07:27:32;;;;;;;;;;;16.50;99.90;;;;;;5113158;28;20374;-68
2022/06/09 07:29:58;;;;;;;;;;;16.60;99.90;;;;;;5111785;28;19942;-68
2022/06/09 07:32:23;;;;;;;;;;;16.60;99.90;;;;;;5112861;28;19923;-68
2022/06/09 07:34:49;;;;;;;;;;;16.70;99.90;;;;;;5113152;28;20014;-68
2022/06/09 07:37:14;;;;;;;;;;;16.90;99.90;;;;;;5111615;28;20036;-68
2022/06/09 07:39:40;;;;;;;;;;;16.90;99.90;;;;;;5112801;28;19920;-68
2022/06/09 07:42:06;;;;;;;;;;;17.10;99.90;;;;;;5112346;28;19919;-68
2022/06/09 07:44:31;;;;;;;;;;;17.20;99.90;;;;;;5112623;28;20355;-68
2022/06/09 07:46:57;;;;;;;;;;;17.30;99.90;;;;;;5112557;28;19919;-68
2022/06/09 07:49:22;;;;;;;;;;;17.30;99.90;;;;;;5111036;28;20392;-68
2022/06/09 07:51:48;;;;;;;;;;;17.40;99.90;;;;;;5112658;28;19919;-68
2022/06/09 07:54:13;;;;;;;;;;;17.40;99.90;;;;;;5112505;28;20015;-68
2022/06/09 07:56:39;;;;;;;;;;;17.60;99.90;;;;;;5112684;28;19932;-68
2022/06/09 07:59:08;;;;;;;;;;;17.70;99.90;;;;;;5110803;28;19927;-68
2022/06/09 08:01:34;;;;;;;;;;;17.60;99.90;;;;;;5112392;28;19951;-68
2022/06/09 08:04:00;;;;;;;;;;;17.70;99.90;;;;;;5112483;28;20329;-68
2022/06/09 08:06:25;;;;;;;;;;;17.80;99.90;;;;;;5112479;28;19972;-67
2022/06/09 08:08:52;;;;;;;;;;;18.00;99.90;;;;;;5112287;28;19920;-67
2022/06/09 08:11:18;;;;;;;;;;;17.90;99.90;;;;;;5112437;28;19926;-67
2022/06/09 08:13:43;;;;;;;;;;;17.90;99.90;;;;;;5112322;28;19924;-68
2022/06/09 08:16:08;;;;;;;;;;;18.10;99.90;;;;;;5112270;28;19967;-67
2022/06/09 08:18:34;;;;;;;;;;;18.10;99.90;;;;;;5111855;28;19923;-68
2022/06/09 08:21:00;;;;;;;;;;;18.20;99.90;;;;;;5112090;28;19926;-67
2022/06/09 08:23:27;;;;;;;;;;;18.30;99.90;;;;;;5112114;28;19924;-68
2022/06/09 08:25:54;;;;;;;;;;;18.30;99.90;;;;;;5112148;28;19931;-68
2022/06/09 08:28:20;;;;;;;;;;;18.20;99.90;;;;;;5112012;28;19927;-68
2022/06/09 08:30:47;;;;;;;;;;;18.20;99.90;;;;;;5110554;28;19920;-67
2022/06/09 08:33:12;;;;;;;;;;;18.20;99.90;;;;;;5112108;28;19942;-67
2022/06/09 08:35:38;;;;;;;;;;;18.10;99.90;;;;;;5110661;28;19920;-67
2022/06/09 08:38:04;;;;;;;;;;;18.30;99.90;;;;;;5112108;28;19923;-67
2022/06/09 08:40:39;;;;;;;;;;;18.30;99.90;;;;;;5110392;28;19927;-68
2022/06/09 08:43:16;;;;;;;;;;;18.40;99.90;;;;;;5111657;28;19975;-67
2022/06/09 08:45:42;;;;;;;;;;;18.40;99.90;;;;;;5112056;28;20300;-67
2022/06/09 08:48:13;;;;;;;;;;;18.40;99.90;;;;;;5111781;28;19920;-68
2022/06/09 08:50:43;;;;;;;;;;;18.60;99.90;;;;;;5110626;28;19920;-67
2022/06/09 08:53:13;;;;;;;;;;;18.80;99.90;;;;;;5111693;28;19924;-67
2022/06/09 08:55:44;;;;;;;;;;;18.90;99.90;;;;;;5114844;28;19923;-67
2022/06/09 08:58:30;;;;;;;;;;;19.00;99.90;;;;;;5116009;28;20018;-68
2022/06/09 09:00:56;;;;;;;;;;;18.80;99.90;;;;;;5114965;28;20447;-68
2022/06/09 09:03:27;;;;;;;;;;;18.60;99.90;;;;;;5115794;28;19934;-67
2022/06/09 09:06:04;;;;;;;;;;;18.60;99.90;;;;;;5115918;28;19956;-67
2022/06/09 09:08:29;;;;;;;;;;;18.70;99.90;;;;;;5114320;28;20010;-67
2022/06/09 09:10:58;;;;;;;;;;;18.80;99.90;;;;;;5115996;28;20387;-67
2022/06/09 09:13:45;;;;;;;;;;;18.90;99.90;;;;;;5115757;28;19919;-67
2022/06/09 09:16:19;;;;;;;;;;;18.90;99.90;;;;;;5115690;28;19957;-67
2022/06/09 09:18:53;;;;;;;;;;;18.90;99.90;;;;;;5115505;28;19923;-67
2022/06/09 09:21:21;;;;;;;;;;;19.00;99.90;;;;;;5114473;28;19920;-67
2022/06/09 09:24:06;;;;;;;;;;;19.20;99.90;;;;;;5115509;28;19930;-67
2022/06/09 09:26:43;;;;;;;;;;;19.20;99.90;;;;;;5115438;28;19920;-68
2022/06/09 09:29:20;;;;;;;;;;;19.30;99.90;;;;;;5115109;28;19968;-67
2022/06/09 09:31:50;;;;;;;;;;;19.50;99.90;;;;;;5113957;28;19920;-67
2022/06/09 09:34:29;;;;;;;;;;;19.40;99.90;;;;;;5115417;28;19920;-68
2022/06/09 09:36:58;;;;;;;;;;;19.30;99.90;;;;;;5115429;28;19920;-67
2022/06/09 09:39:40;;;;;;;;;;;19.30;99.90;;;;;;5114840;28;20417;-68
2022/06/09 09:42:13;;;;;;;;;;;19.30;99.90;;;;;;5115227;28;19990;-67
2022/06/09 09:44:39;;;;;;;;;;;19.20;99.90;;;;;;5115020;28;19927;-67
2022/06/09 09:47:04;;;;;;;;;;;19.30;99.90;;;;;;5115170;28;19934;-67
2022/06/09 09:49:34;;;;;;;;;;;19.30;99.90;;;;;;5114818;28;19923;-67
2022/06/09 09:52:00;;;;;;;;;;;19.30;99.90;;;;;;5115012;28;20299;-67
2022/06/09 09:54:26;;;;;;;;;;;19.40;99.90;;;;;;5115154;28;19920;-67
2022/06/09 09:57:15;;;;;;;;;;;19.60;99.90;;;;;;5115197;28;19930;-67
2022/06/09 09:59:51;;;;;;;;;;;19.70;99.90;;;;;;5103510;28;19926;-67
2022/06/09 10:08:40;;;;;;;;;;;19.90;99.90;;;;;;5031440;28;19925;-67
2022/06/09 10:14:00;;;;;;;;;;;19.90;99.90;;;;;;5031502;28;19921;-67
2022/06/09 10:16:27;;;;;;;;;;;20.00;99.90;;;;;;5031449;28;19956;-67
2022/06/09 10:18:54;;;;;;;;;;;20.20;99.90;;;;;;5031151;28;20421;-67
2022/06/09 10:21:20;;;;;;;;;;;20.30;99.90;;;;;;5031480;28;19928;-67
2022/06/09 10:23:52;;;;;;;;;;;20.40;99.90;;;;;;5031252;28;19925;-67
2022/06/09 10:26:19;;;;;;;;;;;20.50;99.90;;;;;;5031323;28;19967;-67
2022/06/09 10:28:51;;;;;;;;;;;20.50;99.90;;;;;;5030913;28;19921;-67
2022/06/09 10:31:32;;;;;;;;;;;20.40;99.90;;;;;;5031126;28;19960;-67
2022/06/09 10:34:10;;;;;;;;;;;20.60;99.90;;;;;;5031111;28;19999;-67
2022/06/09 10:36:54;;;;;;;;;;;20.60;99.90;;;;;;5031269;28;20282;-67
2022/06/09 10:39:40;;;;;;;;;;;20.60;99.90;;;;;;5030785;28;20421;-68
2022/06/09 10:42:26;;;;;;;;;;;20.70;99.90;;;;;;5031098;28;19921;-67
2022/06/09 10:45:11;;;;;;;;;;;20.60;99.90;;;;;;5112638;28;20467;-67
2022/06/09 10:56:45;;;;;;;;;;;20.70;99.90;;;;;;5113762;28;19920;-67
2022/06/09 10:59:16;;;;;;;;;;;20.80;99.90;;;;;;5113420;28;19977;-68
2022/06/09 11:01:42;;;;;;;;;;;20.70;99.90;;;;;;5113708;28;20333;-68
2022/06/09 11:04:12;;;;;;;;;;;20.80;99.90;;;;;;5113496;28;19923;-67
2022/06/09 11:06:46;;;;;;;;;;;20.80;99.90;;;;;;5113600;28;19919;-67
2022/06/09 11:09:21;;;;;;;;;;;20.70;99.90;;;;;;5113220;28;19973;-67
2022/06/09 11:12:06;;;;;;;;;;;20.90;99.90;;;;;;5113594;28;19920;-67
2022/06/09 11:14:46;;;;;;;;;;;21.00;99.90;;;;;;5113364;28;19920;-68
2022/06/09 11:17:20;;;;;;;;;;;21.00;99.90;;;;;;5112382;28;20073;-68
2022/06/09 11:19:54;;;;;;;;;;;21.10;99.90;;;;;;5113261;28;20296;-68
2022/06/09 11:22:39;;;;;;;;;;;21.10;99.90;;;;;;5113286;28;19973;-68
2022/06/09 11:25:25;;;;;;;;;;;21.10;99.90;;;;;;5113214;28;19935;-67
2022/06/09 11:27:56;;;;;;;;;;;21.10;99.90;;;;;;5113051;28;20018;-67
2022/06/09 11:30:27;;;;;;;;;;;21.00;99.90;;;;;;5113045;28;19924;-67
2022/06/09 11:33:13;;;;;;;;;;;21.10;99.90;;;;;;5113053;28;19919;-67
2022/06/09 11:35:42;;;;;;;;;;;21.10;99.90;;;;;;5112918;28;20295;-67
2022/06/09 11:38:17;;;;;;;;;;;21.20;99.90;;;;;;5112827;28;19919;-68
2022/06/09 11:40:45;;;;;;;;;;;21.20;99.90;;;;;;5112977;27;19920;-67
2022/06/09 11:43:11;;;;;;;;;;;21.30;99.90;;;;;;5112759;28;19923;-68
2022/06/09 11:45:41;;;;;;;;;;;21.30;99.90;;;;;;5112846;28;19981;-67
2022/06/09 11:48:11;;;;;;;;;;;21.30;99.90;;;;;;5112768;28;19919;-67
2022/06/09 11:50:39;;;;;;;;;;;21.30;99.90;;;;;;5112375;28;19920;-67
2022/06/09 11:53:05;;;;;;;;;;;21.30;99.90;;;;;;5112826;28;20392;-68
2022/06/09 11:58:49;;;;;;;;;;;21.40;99.90;;;;;;5112369;28;19920;-68
2022/06/09 12:01:20;;;;;;;;;;;21.40;99.90;;;;;;5067103;28;20696;-68
2022/06/09 12:04:04;;;;;;;;;;;21.40;99.90;;;;;;5112499;28;19976;-68
2022/06/09 12:06:49;;;;;;;;;;;21.50;99.90;;;;;;5111867;28;21252;-68
2022/06/09 12:09:18;;;;;;;;;;;21.50;99.90;;;;;;5112216;28;20523;-67
2022/06/09 12:11:51;;;;;;;;;;;21.50;99.90;;;;;;5112502;28;19920;-67
2022/06/09 12:14:18;;;;;;;;;;;21.60;99.90;;;;;;5112674;28;19931;-67
2022/06/09 12:17:07;;;;;;;;;;;21.60;99.90;;;;;;5112481;28;19930;-68
2022/06/09 12:19:49;;;;;;;;;;;21.50;99.90;;;;;;5112071;28;19920;-68
2022/06/09 12:22:27;;;;;;;;;;;21.60;99.90;;;;;;5112128;28;19920;-67
2022/06/09 12:25:21;;;;;;;;;;;21.40;99.90;;;;;;5112136;28;19963;-68
2022/06/09 12:27:48;;;;;;;;;;;21.50;99.90;;;;;;5109222;28;19920;-68
2022/06/09 12:30:32;;;;;;;;;;;21.50;99.90;;;;;;5111638;28;19923;-68
2022/06/09 12:33:10;;;;;;;;;;;21.50;99.90;;;;;;5112029;28;19927;-68
2022/06/09 12:35:39;;;;;;;;;;;21.50;99.90;;;;;;5112041;28;19949;-68
2022/06/09 12:38:06;;;;;;;;;;;21.60;99.90;;;;;;5112019;28;19976;-68
2022/06/09 12:40:43;;;;;;;;;;;21.60;99.90;;;;;;5111563;28;19923;-67
2022/06/09 12:43:20;;;;;;;;;;;21.70;99.90;;;;;;5111841;28;19924;-68
2022/06/09 12:45:57;;;;;;;;;;;21.70;99.90;;;;;;5111980;28;20331;-68
2022/06/09 12:48:27;;;;;;;;;;;21.80;99.90;;;;;;5111717;28;19926;-68
2022/06/09 12:50:52;;;;;;;;;;;21.50;99.90;;;;;;5111821;28;19924;-67
2022/06/09 12:53:21;;;;;;;;;;;21.60;99.90;;;;;;5111600;28;19927;-67
2022/06/09 12:55:50;;;;;;;;;;;21.40;99.90;;;;;;5111919;28;19927;-68
2022/06/09 12:58:20;;;;;;;;;;;21.30;99.90;;;;;;5111525;28;20398;-68
2022/06/09 13:00:52;;;;;;;;;;;21.30;99.90;;;;;;5111663;28;19981;-68
2022/06/09 13:03:35;;;;;;;;;;;21.20;99.90;;;;;;5111517;28;19924;-68
2022/06/09 13:06:20;;;;;;;;;;;21.20;99.90;;;;;;5111803;28;19927;-67
2022/06/09 13:08:47;;;;;;;;;;;21.30;99.90;;;;;;5111452;28;19926;-68
2022/06/09 13:12:50;;;;;;;;;;;21.20;99.90;;;;;;5111636;28;19924;-68
2022/06/09 13:14:11;;;;;;;;;;;21.20;99.90;;;;;;5111435;28;19978;-68
2022/06/09 13:16:39;;;;;;;;;;;21.20;99.90;;;;;;5110490;28;19919;-67
2022/06/09 13:19:06;;;;;;;;;;;21.10;99.90;;;;;;5111415;28;19926;-67
2022/06/09 13:21:36;;;;;;;;;;;21.10;99.90;;;;;;5111551;28;20323;-68
2022/06/09 13:24:03;;;;;;;;;;;21.10;99.90;;;;;;5111229;28;19928;-68
2022/06/09 13:26:33;;;;;;;;;;;21.10;99.90;;;;;;5111564;28;20273;-68
2022/06/09 13:29:00;;;;;;;;;;;21.10;99.90;;;;;;5111336;28;19924;-68
2022/06/09 13:31:28;;;;;;;;;;;21.10;99.90;;;;;;5111523;28;19947;-68
2022/06/09 13:34:01;;;;;;;;;;;21.00;99.90;;;;;;5111359;28;20018;-68
2022/06/09 13:36:37;;;;;;;;;;;20.90;99.90;;;;;;5111207;28;20399;-67
2022/06/09 13:39:21;;;;;;;;;;;21.00;99.90;;;;;;5110913;28;20015;-68
2022/06/09 13:41:47;;;;;;;;;;;21.10;99.90;;;;;;5114404;28;20011;-67
2022/06/09 13:44:16;;;;;;;;;;;21.20;99.90;;;;;;5115245;28;20010;-68
2022/06/09 13:46:56;;;;;;;;;;;21.20;99.90;;;;;;5115198;28;19924;-68
2022/06/09 13:49:24;;;;;;;;;;;21.40;99.90;;;;;;5114795;28;19924;-68
2022/06/09 13:51:52;;;;;;;;;;;21.30;99.90;;;;;;5115254;28;20477;-68
2022/06/09 13:54:25;;;;;;;;;;;21.40;99.90;;;;;;5115066;28;19926;-68
2022/06/09 13:56:51;;;;;;;;;;;21.30;99.90;;;;;;5115133;28;19924;-67
2022/06/09 13:59:18;;;;;;;;;;;21.20;99.90;;;;;;5114474;28;20444;-70
2022/06/09 14:01:44;;;;;;;;;;;21.30;99.90;;;;;;5114748;28;19923;-67
2022/06/09 14:04:21;;;;;;;;;;;21.30;99.90;;;;;;5114688;28;19980;-68
2022/06/09 14:06:47;;;;;;;;;;;21.50;99.90;;;;;;5114934;28;19920;-68
2022/06/09 14:09:14;;;;;;;;;;;21.40;99.90;;;;;;5114403;28;20346;-68
2022/06/09 14:11:40;;;;;;;;;;;21.20;99.90;;;;;;5114597;28;19928;-68
2022/06/09 14:14:05;;;;;;;;;;;21.10;99.90;;;;;;5114628;28;19920;-68
2022/06/09 14:16:35;;;;;;;;;;;21.10;99.90;;;;;;5114509;28;19930;-68
2022/06/09 14:19:03;;;;;;;;;;;21.10;99.90;;;;;;5114464;28;19924;-68
2022/06/09 14:21:29;;;;;;;;;;;21.10;99.90;;;;;;5114647;28;19927;-68
2022/06/09 14:23:55;;;;;;;;;;;21.10;99.90;;;;;;5114339;28;19928;-68
2022/06/09 14:26:22;;;;;;;;;;;21.10;99.90;;;;;;5114409;28;20323;-68
2022/06/09 14:28:49;;;;;;;;;;;21.10;99.90;;;;;;5114083;28;19926;-67
2022/06/09 14:31:16;;;;;;;;;;;21.20;99.90;;;;;;5114155;28;20426;-68
2022/06/09 14:33:42;;;;;;;;;;;21.20;99.90;;;;;;5114472;28;19950;-68
2022/06/09 14:36:09;;;;;;;;;;;21.40;99.90;;;;;;5114341;28;19919;-68
2022/06/09 14:38:35;;;;;;;;;;;21.20;99.90;;;;;;5113977;28;19959;-67
2022/06/09 14:41:00;;;;;;;;;;;21.30;99.90;;;;;;5114255;28;20028;-67
2022/06/09 14:43:25;;;;;;;;;;;21.40;99.90;;;;;;5113746;28;19924;-68
2022/06/09 14:45:53;;;;;;;;;;;21.20;99.90;;;;;;5114231;28;20002;-68
2022/06/09 14:48:21;;;;;;;;;;;21.20;99.90;;;;;;5113957;28;20307;-68
2022/06/09 14:50:47;;;;;;;;;;;21.20;99.90;;;;;;5113864;28;19927;-68
2022/06/09 14:53:13;;;;;;;;;;;21.30;99.90;;;;;;5112527;28;19920;-68